• Join FlightAware (Why Join?)
  • Login
  • US Flag 
06:47PM EDT


 

Airport Tracker/Info


-or-


 

Live Flight TrackerFlight Track Log ✈ SWA378 ✈ 13-Jun-2013 ✈ KSJC - KONT

Flight Track Log - Related Links

Times and Time Zones

All times are in EDT time to prevent confusion due to time zone crossing. See the SWA378 flight status page for this flight to view local times or setup timezone preferences in your user account.

Time Position Orientation Groundspeed Altitude Reporting Facility
EDT Latitude Longitude Course Direction KTS MPH feet Rate Location/Type
11:09AM 37.3783 -121.9492 334° Northwest 151 174 1,400  Level Oakland Center
11:10AM 37.4333 -121.9833 334° Northwest 217 250 3,700 1,920 Climbing Northern Cal TRACON
11:11AM 37.4333 -121.9167 90° East 255 293 5,000 900 Climbing Northern Cal TRACON
11:12AM 37.3833 -121.8500 133° Southeast 270 311 5,500 1,320 Climbing Northern Cal TRACON
11:12AM 37.3722 -121.8364 136° Southeast 260 299 6,600 4,020 Climbing Oakland Center
11:13AM 37.3069 -121.7636 138° Southeast 295 339 10,800 3,480 Climbing Oakland Center
11:14AM 37.2361 -121.6808 137° Southeast 352 405 13,800 3,240 Climbing Oakland Center
11:15AM 37.1603 -121.5944 138° Southeast 367 422 17,400 2,940 Climbing Oakland Center
11:16AM 37.0853 -121.5119 139° Southeast 379 436 19,800 2,460 Climbing Oakland Center
11:17AM 36.9997 -121.4200 139° Southeast 401 461 22,500 2,400 Climbing Oakland Center
11:18AM 36.9119 -121.3242 139° Southeast 418 481 24,800 2,400 Climbing Oakland Center
11:19AM 36.8161 -121.2200 139° Southeast 431 496 27,400 2,280 Climbing Oakland Center
11:21AM 36.6333 -121.0125 138° Southeast 447 514 31,800 2,160 Climbing Oakland Center
11:22AM 36.5581 -120.8917 128° Southeast 443 510 34,200 1,560 Climbing Oakland Center
11:23AM 36.4658 -120.7478 129° Southeast 444 511 35,000 360 Climbing Oakland Center
11:24AM 36.3856 -120.6294 130° Southeast 448 516 35,000  Level Oakland Center
11:25AM 36.3072 -120.5078 129° Southeast 448 516 35,000  Level Oakland Center
11:26AM 36.2275 -120.3906 130° Southeast 446 513 35,000  Level Oakland Center
11:27AM 36.1494 -120.2708 129° Southeast 446 513 35,000  Level Oakland Center
11:28AM 36.0703 -120.1533 130° Southeast 444 511 35,000  Level Oakland Center
11:29AM 35.9919 -120.0358 129° Southeast 442 509 35,000  Level Oakland Center
11:30AM 35.9122 -119.9183 130° Southeast 443 510 35,000  Level Oakland Center
11:32AM 35.8347 -119.8022 129° Southeast 440 506 35,000  Level Oakland Center
11:33AM 35.7564 -119.6858 130° Southeast 439 505 35,000  Level Oakland Center
11:34AM 35.6772 -119.5700 130° Southeast 441 507 35,000  Level Oakland Center
11:35AM 35.5833 -119.4325 130° Southeast 436 502 35,000  Level Los Angeles Center
11:36AM 35.4889 -119.2953 130° Southeast 437 503 35,000  Level Los Angeles Center
11:37AM 35.4119 -119.1817 130° Southeast 434 499 35,000  Level Los Angeles Center
11:38AM 35.3344 -119.0672 130° Southeast 435 501 35,000  Level Los Angeles Center
11:39AM 35.2567 -118.9542 130° Southeast 435 501 35,000  Level Los Angeles Center
11:40AM 35.1778 -118.8411 130° Southeast 436 502 35,000  Level Los Angeles Center
11:41AM 35.0983 -118.7286 131° Southeast 437 503 35,000 -60 Level Los Angeles Center
11:42AM 35.0200 -118.6158 130° Southeast 436 502 34,900 -1,560 Descending Los Angeles Center
11:43AM 34.9250 -118.4817 131° Southeast 436 502 31,800 -2,640 Descending Los Angeles Center
11:44AM 34.8519 -118.3775 131° Southeast 440 506 29,500 -2,400 Descending Los Angeles Center
11:45AM 34.7733 -118.2647 130° Southeast 439 505 26,900 -2,640 Descending Los Angeles Center
11:46AM 34.6958 -118.1558 131° Southeast 433 498 24,100 -3,000 Descending Los Angeles Center
11:47AM 34.6125 -118.0247 128° Southeast 414 476 20,800 -2,280 Descending Los Angeles Center
11:48AM 34.5594 -117.9086 119° Southeast 398 458 19,500 -1,080 Descending Los Angeles Center
11:49AM 34.5089 -117.7983 119° Southeast 381 438 18,600 -1,380 Descending Los Angeles Center
11:50AM 34.4581 -117.6878 119° Southeast 378 435 16,700 -2,040 Descending Los Angeles Center
11:51AM 34.4078 -117.5808 120° Southeast 368 423 14,400 -1,800 Descending Los Angeles Center
11:52AM 34.3569 -117.4675 118° Southeast 339 390 13,000 -780 Descending Los Angeles Center
11:53AM 34.3161 -117.3783 119° Southeast 308 354 12,800 -960 Descending Los Angeles Center
11:54AM 34.2833 -117.2989 117° Southeast 272 313 11,100 -1,800 Descending Los Angeles Center
11:55AM 34.2275 -117.2397 139° Southeast 277 319 9,200 -1,500 Descending Los Angeles Center
11:56AM 34.1481 -117.1869 151° Southeast 268 308 8,000 -1,200 Descending Los Angeles Center
11:57AM 34.1167 -117.2000 199° South 256 295 7,400 -1,380 Descending Southern California TRACON
11:58AM 34.0667 -117.2333 209° Southwest 254 292 6,000 -1,200 Descending Southern California TRACON
11:59AM 34.0667 -117.3000 270° West 226 260 5,200 -900 Descending Southern California TRACON
12:00PM 34.0500 -117.3667 253° West 198 228 4,300 -1,020 Descending Southern California TRACON
12:01PM 34.0500 -117.4333 270° West 196 226 3,200 -1,020 Descending Southern California TRACON
12:02PM 34.0500 -117.5000 270° West 170 196 2,300 -840 Descending Southern California TRACON
12:03PM 34.0500 -117.5500 270° West 134 154 1,600 -720 Descending Southern California TRACON
12:06PM 34.0500 -117.6000 270° West  Level FlightAware Approximate